createdAt,value
2018-11-10T00:54:01.261Z,90.60
2018-11-10T00:56:30.026Z,81.73
2018-11-10T00:58:58.673Z,80.60
2018-11-10T01:01:27.621Z,74.20
2018-11-10T01:03:56.361Z,74.53
2018-11-10T01:06:25.034Z,73.37
2018-11-10T01:08:54.074Z,69.00
2018-11-10T01:11:22.456Z,75.83
2018-11-10T01:13:50.850Z,68.83
2018-11-10T01:16:19.458Z,71.00
2018-11-10T01:18:48.092Z,68.00
2018-11-10T01:21:16.872Z,72.37
2018-11-10T01:23:45.224Z,71.10
2018-11-10T01:26:14.243Z,65.33
2018-11-10T01:28:42.876Z,69.37
2018-11-10T01:31:11.579Z,74.87
2018-11-10T01:33:40.266Z,70.50
2018-11-10T01:36:08.913Z,66.47
2018-11-10T01:38:37.418Z,69.77
2018-11-10T01:41:07.315Z,74.10
2018-11-10T01:43:35.708Z,72.20
2018-11-10T01:46:04.324Z,74.33
2018-11-10T01:48:33.004Z,69.13
2018-11-10T01:51:01.458Z,65.33
2018-11-10T01:53:29.887Z,64.17
2018-11-10T01:55:58.448Z,57.07
2018-11-10T01:58:27.017Z,57.40
2018-11-10T02:00:55.874Z,60.50
2018-11-10T02:03:24.384Z,61.33
2018-11-10T02:05:52.739Z,60.57
2018-11-10T02:08:21.122Z,52.73
2018-11-10T02:10:49.498Z,59.37
2018-11-10T02:13:17.929Z,55.27
2018-11-10T02:15:46.717Z,59.33
2018-11-10T02:18:15.093Z,60.93
2018-11-10T02:20:43.565Z,60.67
2018-11-10T02:23:12.165Z,56.20
2018-11-10T02:25:41.155Z,50.57
2018-11-10T02:28:09.586Z,54.83
2018-11-10T02:30:38.139Z,52.10
2018-11-10T02:33:06.512Z,49.80
2018-11-10T02:35:34.980Z,50.87
2018-11-10T02:38:03.349Z,50.27
2018-11-10T02:40:31.729Z,51.67
2018-11-10T02:43:00.433Z,53.90
2018-11-10T02:45:28.841Z,51.67
2018-11-10T02:47:57.226Z,52.60
2018-11-10T02:50:25.603Z,49.63
2018-11-10T02:52:54.347Z,49.43
2018-11-10T02:55:22.922Z,54.80
2018-11-10T02:57:51.334Z,54.13
2018-11-10T03:00:19.737Z,52.00
2018-11-10T03:02:48.093Z,52.93
2018-11-10T03:05:16.473Z,50.53
2018-11-10T03:07:44.841Z,54.83
2018-11-10T03:10:13.543Z,49.93
2018-11-10T03:12:42.284Z,53.80
2018-11-10T03:15:11.813Z,46.27
2018-11-10T03:17:40.190Z,49.93
2018-11-10T03:20:11.063Z,48.07
2018-11-10T03:22:39.418Z,53.30
2018-11-10T03:25:08.495Z,46.07
2018-11-10T03:27:37.153Z,48.70
2018-11-10T03:30:06.361Z,47.53
2018-11-10T03:32:35.868Z,45.93
2018-11-10T03:35:04.816Z,43.77
2018-11-10T03:37:33.210Z,47.87
2018-11-10T03:40:02.334Z,48.50
2018-11-10T03:42:30.760Z,50.37
2018-11-10T03:44:59.371Z,45.63
2018-11-10T03:47:28.668Z,47.83
2018-11-10T03:49:57.395Z,43.57
2018-11-10T03:52:26.122Z,45.97
2018-11-10T03:54:54.944Z,48.27
2018-11-10T03:57:23.311Z,46.67
2018-11-10T03:59:51.836Z,48.50
2018-11-10T04:02:20.215Z,47.20
2018-11-10T04:04:48.568Z,47.60
2018-11-10T04:07:17.285Z,47.10
2018-11-10T04:09:45.661Z,52.80
2018-11-10T04:12:14.359Z,50.53
2018-11-10T04:14:42.760Z,47.63
2018-11-10T04:17:11.442Z,45.47
2018-11-10T04:19:39.947Z,45.43
2018-11-10T04:22:08.448Z,41.43
2018-11-10T04:24:36.841Z,41.97
2018-11-10T04:27:05.301Z,44.37
2018-11-10T04:29:33.685Z,41.27
2018-11-10T04:32:02.075Z,38.17
2018-11-10T04:34:30.461Z,42.43
2018-11-10T04:36:58.885Z,38.80
2018-11-10T04:39:27.244Z,43.67
2018-11-10T04:41:56.198Z,38.60
2018-11-10T04:44:24.590Z,39.80
2018-11-10T04:46:53.443Z,40.20
2018-11-10T04:49:22.119Z,35.67
2018-11-10T04:51:50.592Z,35.73
2018-11-10T04:54:18.988Z,40.93
2018-11-10T04:56:47.589Z,40.63
2018-11-10T04:59:15.989Z,43.13
2018-11-10T05:01:44.935Z,43.53
2018-11-10T05:04:14.222Z,42.00
2018-11-10T05:06:42.587Z,38.70
2018-11-10T05:09:11.939Z,46.37
2018-11-10T05:11:40.933Z,39.37
2018-11-10T05:14:09.906Z,45.10
2018-11-10T05:16:38.924Z,41.07
2018-11-10T05:19:07.289Z,39.03
2018-11-10T05:21:36.050Z,42.83
2018-11-10T05:24:04.978Z,41.13
2018-11-10T05:26:34.353Z,41.53
2018-11-10T05:29:03.224Z,42.50
2018-11-10T05:31:31.971Z,45.00
2018-11-10T05:34:00.384Z,45.67
2018-11-10T05:36:28.762Z,50.33
2018-11-10T05:38:57.704Z,43.90
2018-11-10T05:41:26.344Z,46.70
2018-11-10T05:43:55.089Z,45.47
2018-11-10T05:46:25.560Z,47.70
2018-11-10T05:48:54.308Z,52.07
2018-11-10T05:51:22.656Z,52.73
2018-11-10T05:53:51.161Z,56.80
2018-11-10T05:56:19.540Z,55.97
2018-11-10T05:58:48.104Z,50.93
2018-11-10T06:01:16.701Z,49.93
2018-11-10T06:03:45.110Z,54.80
2018-11-10T06:06:13.480Z,51.83
2018-11-10T06:08:41.995Z,51.17
2018-11-10T06:11:12.433Z,50.33
2018-11-10T06:13:41.147Z,49.70
2018-11-10T06:16:09.574Z,58.20
2018-11-10T06:18:37.947Z,53.50
2018-11-10T06:21:06.607Z,59.80
2018-11-10T06:23:35.021Z,59.83
2018-11-10T06:26:03.439Z,55.53
2018-11-10T06:28:31.775Z,54.40
2018-11-10T06:31:00.160Z,57.27
2018-11-10T06:33:28.789Z,53.37
2018-11-10T06:35:57.527Z,56.93
2018-11-10T06:38:26.141Z,53.73
2018-11-10T06:40:55.947Z,55.97
2018-11-10T06:43:24.350Z,57.23
2018-11-10T06:45:52.772Z,56.47
2018-11-10T06:48:21.171Z,55.80
2018-11-10T06:50:50.492Z,57.73
2018-11-10T06:53:18.915Z,54.97
2018-11-10T06:55:47.592Z,59.60
2018-11-10T06:58:15.960Z,62.53
2018-11-10T07:00:44.608Z,55.17
2018-11-10T07:03:13.330Z,62.83
2018-11-10T07:05:41.721Z,58.17
2018-11-10T07:08:10.433Z,62.03
2018-11-10T07:10:38.972Z,63.47
2018-11-10T07:13:07.795Z,54.20
2018-11-10T07:15:37.658Z,59.73
2018-11-10T07:18:06.416Z,55.20
2018-11-10T07:20:34.767Z,58.73
2018-11-10T07:23:03.150Z,57.03
2018-11-10T07:25:31.804Z,60.93
2018-11-10T07:28:00.442Z,59.97
2018-11-10T07:30:28.817Z,57.87
2018-11-10T07:32:57.267Z,53.50
2018-11-10T07:35:25.888Z,51.33
2018-11-10T07:37:54.332Z,48.87
2018-11-10T07:40:22.728Z,46.73
2018-11-10T07:42:51.293Z,46.00
2018-11-10T07:45:19.708Z,42.07
2018-11-10T07:47:48.142Z,46.70
2018-11-10T07:50:16.576Z,45.90
2018-11-10T07:52:45.671Z,49.83
2018-11-10T07:55:15.405Z,49.80
2018-11-10T07:57:44.224Z,44.30
2018-11-10T08:00:15.243Z,51.27
2018-11-10T08:02:43.682Z,47.33
2018-11-10T08:05:13.027Z,50.23
2018-11-10T08:07:43.023Z,50.83
2018-11-10T08:10:12.824Z,49.27
2018-11-10T08:12:41.394Z,44.90
2018-11-10T08:15:13.389Z,40.03
2018-11-10T08:17:42.376Z,42.97
2018-11-10T08:20:11.611Z,41.30
2018-11-10T08:22:40.483Z,40.70
2018-11-10T08:25:12.211Z,45.30
2018-11-10T08:27:40.582Z,43.50
2018-11-10T08:30:11.148Z,47.53
2018-11-10T08:32:40.148Z,46.43
2018-11-10T08:35:10.457Z,48.13
2018-11-10T08:37:39.200Z,40.87
2018-11-10T08:40:10.371Z,42.27
2018-11-10T08:42:39.174Z,40.00
2018-11-10T08:45:09.242Z,39.10
2018-11-10T08:47:38.143Z,40.43
2018-11-10T08:50:08.034Z,37.93
2018-11-10T08:52:36.893Z,36.03
2018-11-10T08:55:06.287Z,40.10
2018-11-10T08:57:35.045Z,42.10
2018-11-10T09:00:03.954Z,38.27
2018-11-10T09:02:32.365Z,37.30
2018-11-10T09:05:00.792Z,38.10
2018-11-10T09:07:29.471Z,35.37
2018-11-10T09:09:58.676Z,30.57
2018-11-10T09:12:27.030Z,33.00
2018-11-10T09:14:55.485Z,33.17
2018-11-10T09:17:24.095Z,28.53
2018-11-10T09:19:52.512Z,31.07
2018-11-10T09:22:21.240Z,29.80
2018-11-10T09:24:50.202Z,28.00
2018-11-10T09:27:19.348Z,31.90
2018-11-10T09:29:48.009Z,33.87
2018-11-10T09:32:16.427Z,30.63
2018-11-10T09:34:44.867Z,28.23
2018-11-10T09:37:13.959Z,28.77
2018-11-10T09:39:43.107Z,30.80
2018-11-10T09:42:11.987Z,29.33
2018-11-10T09:44:40.313Z,30.23
2018-11-10T09:47:09.021Z,30.73
2018-11-10T09:49:37.702Z,31.80
2018-11-10T09:52:06.179Z,31.77
2018-11-10T09:54:34.633Z,34.53
2018-11-10T09:57:04.341Z,30.33
2018-11-10T09:59:32.891Z,30.33
2018-11-10T10:02:01.632Z,26.77
2018-11-10T10:04:30.736Z,24.97
2018-11-10T10:06:59.398Z,28.13
2018-11-10T10:09:28.065Z,26.87
2018-11-10T10:11:56.765Z,28.27
2018-11-10T10:14:25.209Z,29.97
2018-11-10T10:16:53.624Z,32.13
2018-11-10T10:19:22.218Z,30.33
2018-11-10T10:21:50.928Z,31.00
2018-11-10T10:24:19.352Z,32.70
2018-11-10T10:26:47.981Z,33.00
2018-11-10T10:29:16.396Z,33.37
2018-11-10T10:31:45.352Z,31.33
2018-11-10T10:34:13.802Z,34.17
2018-11-10T10:36:42.173Z,34.77
2018-11-10T10:39:11.103Z,33.77
2018-11-10T10:41:39.867Z,35.03
2018-11-10T10:44:10.345Z,33.50
2018-11-10T10:46:38.989Z,33.43
2018-11-10T10:49:07.430Z,31.93
2018-11-10T10:51:36.187Z,31.73
2018-11-10T10:54:04.623Z,31.43
2018-11-10T10:56:33.208Z,32.30
2018-11-10T10:59:01.791Z,38.70
2018-11-10T11:01:35.452Z,35.10
2018-11-10T11:04:09.074Z,35.23
2018-11-10T11:06:37.738Z,32.97
2018-11-10T11:09:07.638Z,35.53
2018-11-10T11:11:36.315Z,33.93
2018-11-10T11:14:05.035Z,35.57
2018-11-10T11:16:34.018Z,33.53
2018-11-10T11:19:02.709Z,33.23
2018-11-10T11:21:38.066Z,30.47
2018-11-10T11:24:06.662Z,35.40
2018-11-10T11:26:35.990Z,43.07
2018-11-10T11:29:04.513Z,39.37
2018-11-10T11:31:32.889Z,40.50
2018-11-10T11:34:01.326Z,38.33
2018-11-10T11:36:30.140Z,38.20
2018-11-10T11:38:59.026Z,39.37
2018-11-10T11:41:28.395Z,36.27
2018-11-10T11:43:56.954Z,36.17
2018-11-10T11:46:25.547Z,37.50
2018-11-10T11:48:53.950Z,33.23
2018-11-10T11:51:22.533Z,34.50
2018-11-10T11:53:51.010Z,36.00
2018-11-10T11:56:19.481Z,34.67
2018-11-10T11:58:47.883Z,34.80
2018-11-10T12:01:16.512Z,31.80
2018-11-10T12:03:45.448Z,31.33
2018-11-10T12:06:14.268Z,30.77
2018-11-10T12:08:42.855Z,29.90
2018-11-10T12:11:11.580Z,28.10
2018-11-10T12:13:40.594Z,26.53
2018-11-10T12:16:09.160Z,28.30
2018-11-10T12:18:38.151Z,27.97
2018-11-10T12:21:07.230Z,30.10
2018-11-10T12:23:36.152Z,28.87
2018-11-10T12:26:05.185Z,29.17
2018-11-10T12:28:34.481Z,28.23
2018-11-10T12:31:02.904Z,28.20
2018-11-10T12:33:31.318Z,26.87
2018-11-10T12:35:59.791Z,30.27
2018-11-10T12:38:28.492Z,28.43
2018-11-10T12:40:56.907Z,28.20
2018-11-10T12:43:25.336Z,31.57
2018-11-10T12:45:54.085Z,30.73
2018-11-10T12:48:23.068Z,31.60
2018-11-10T12:50:51.724Z,31.17
2018-11-10T12:53:20.126Z,30.73
2018-11-10T12:55:48.557Z,29.40
2018-11-10T12:58:16.995Z,32.30
2018-11-10T13:00:45.389Z,30.83
2018-11-10T13:03:14.447Z,29.80
2018-11-10T13:05:42.908Z,36.87
2018-11-10T13:08:11.323Z,39.10
2018-11-10T13:10:39.762Z,40.93
2018-11-10T13:13:08.619Z,45.37
2018-11-10T13:15:37.104Z,38.50
2018-11-10T13:18:05.541Z,40.17
2018-11-10T13:20:34.375Z,33.13
2018-11-10T13:23:03.602Z,34.00
2018-11-10T13:25:32.365Z,33.87
2018-11-10T13:28:00.755Z,32.30
2018-11-10T13:30:29.165Z,32.93
2018-11-10T13:32:57.561Z,36.10
2018-11-10T13:35:26.171Z,33.67
2018-11-10T13:37:54.574Z,31.83
2018-11-10T13:40:23.302Z,32.10
2018-11-10T13:42:51.937Z,33.90
2018-11-10T13:45:20.972Z,30.90
2018-11-10T13:47:49.654Z,29.73
2018-11-10T13:50:18.080Z,31.10
2018-11-10T13:52:46.804Z,29.10
2018-11-10T13:55:14.912Z,29.67
2018-11-10T13:57:43.336Z,26.60
2018-11-10T14:00:14.335Z,26.50
2018-11-10T14:02:43.595Z,25.57
2018-11-10T14:05:13.526Z,24.67
2018-11-10T14:07:42.529Z,28.20
2018-11-10T14:10:13.351Z,25.07
2018-11-10T14:12:43.047Z,27.17
2018-11-10T14:15:11.445Z,28.90
2018-11-10T14:17:41.244Z,25.93
2018-11-10T14:20:12.334Z,28.33
2018-11-10T14:22:41.094Z,27.60
2018-11-10T14:25:11.640Z,22.07
2018-11-10T14:27:41.963Z,23.97
2018-11-10T14:30:12.729Z,22.53
2018-11-10T14:32:42.316Z,24.70
2018-11-10T14:35:11.157Z,23.47
2018-11-10T14:37:39.866Z,21.40
2018-11-10T14:40:11.382Z,23.03
2018-11-10T14:42:41.020Z,20.47
2018-11-10T14:45:12.121Z,23.07
2018-11-10T14:47:41.709Z,20.73
2018-11-10T14:50:11.358Z,24.47
2018-11-10T14:52:40.229Z,24.50
2018-11-10T14:55:09.623Z,21.37
2018-11-10T14:57:38.462Z,24.87
2018-11-10T15:00:14.231Z,23.83
2018-11-10T15:02:42.864Z,24.10
2018-11-10T15:05:12.688Z,23.33
2018-11-10T15:07:42.709Z,23.30
2018-11-10T15:10:13.835Z,23.83
2018-11-10T15:12:43.692Z,25.43
2018-11-10T15:15:13.555Z,28.87
2018-11-10T15:17:42.711Z,28.47
2018-11-10T15:20:12.691Z,24.33
2018-11-10T15:22:41.162Z,29.23
2018-11-10T15:25:12.091Z,28.13
2018-11-10T15:27:40.976Z,30.37
2018-11-10T15:30:12.748Z,24.93
2018-11-10T15:32:42.150Z,27.83
2018-11-10T15:35:12.268Z,27.50
2018-11-10T15:37:41.651Z,26.77
2018-11-10T15:40:11.489Z,28.23
2018-11-10T15:42:39.879Z,28.37
2018-11-10T15:45:10.004Z,26.90
2018-11-10T15:47:38.433Z,29.87
2018-11-10T15:50:08.406Z,29.00
2018-11-10T15:52:36.854Z,27.70
2018-11-10T15:55:06.412Z,29.13
2018-11-10T15:57:35.243Z,30.17
2018-11-10T16:00:03.818Z,30.17
2018-11-10T16:02:32.416Z,35.67
2018-11-10T16:05:00.822Z,31.07
2018-11-10T16:07:29.309Z,31.20
2018-11-10T16:09:59.008Z,31.23
2018-11-10T16:12:27.974Z,31.60
2018-11-10T16:14:56.409Z,35.50
2018-11-10T16:17:24.996Z,36.40
2018-11-10T16:19:53.519Z,36.90
2018-11-10T16:22:21.917Z,34.67
2018-11-10T16:24:50.443Z,33.43
2018-11-10T16:27:18.973Z,35.33
2018-11-10T16:29:50.721Z,35.57
2018-11-10T16:32:19.516Z,32.47
2018-11-10T16:34:48.255Z,34.43
2018-11-10T16:37:16.665Z,42.67
2018-11-10T16:39:45.543Z,39.90
2018-11-10T16:42:14.017Z,38.90
2018-11-10T16:44:42.611Z,42.63
2018-11-10T16:47:11.400Z,40.67
2018-11-10T16:49:39.766Z,47.87
2018-11-10T16:52:08.221Z,44.23
2018-11-10T16:54:37.024Z,49.23
2018-11-10T16:57:05.794Z,47.90
2018-11-10T16:59:34.283Z,49.07
2018-11-10T17:02:02.836Z,47.70
2018-11-10T17:04:31.463Z,44.67
2018-11-10T17:07:00.225Z,48.03
2018-11-10T17:09:28.665Z,45.60
2018-11-10T17:11:57.068Z,51.60
2018-11-10T17:14:25.580Z,45.10
2018-11-10T17:16:53.984Z,45.43
2018-11-10T17:19:22.991Z,43.93
2018-11-10T17:21:51.943Z,44.97
2018-11-10T17:24:20.213Z,48.53
2018-11-10T17:26:48.830Z,47.30
2018-11-10T17:29:17.392Z,111.73
2018-11-10T17:31:46.134Z,95.73
2018-11-10T17:34:14.700Z,60.20
2018-11-10T17:36:43.300Z,55.30
2018-11-10T17:39:11.986Z,49.30
2018-11-10T17:41:40.272Z,50.93
2018-11-10T17:44:10.066Z,52.13
2018-11-10T17:46:39.624Z,50.83
2018-11-10T17:49:08.456Z,48.10
2018-11-10T17:51:37.002Z,45.53
2018-11-10T17:54:05.747Z,45.90
2018-11-10T17:56:34.367Z,43.63
2018-11-10T17:59:03.093Z,48.27
2018-11-10T18:01:31.891Z,46.80
2018-11-10T18:04:00.862Z,51.40
2018-11-10T18:06:29.432Z,51.07
2018-11-10T18:08:58.172Z,51.77
2018-11-10T18:11:26.587Z,54.27
2018-11-10T18:13:55.228Z,52.13
2018-11-10T18:16:23.589Z,58.57
2018-11-10T18:18:52.076Z,62.73
2018-11-10T18:21:20.601Z,59.43
2018-11-10T18:23:49.266Z,65.70
2018-11-10T18:26:17.662Z,58.27
2018-11-10T18:28:46.061Z,58.73
2018-11-10T18:31:14.560Z,66.50
2018-11-10T18:33:43.114Z,71.57
2018-11-10T18:36:11.575Z,67.03
2018-11-10T18:38:40.161Z,75.37
2018-11-10T18:41:09.234Z,73.87
2018-11-10T18:43:37.776Z,65.63
2018-11-10T18:46:06.615Z,65.47
2018-11-10T18:48:36.062Z,73.37
2018-11-10T18:51:04.816Z,74.43
2018-11-10T18:53:33.554Z,72.83
2018-11-10T18:56:01.988Z,70.70
2018-11-10T18:58:30.394Z,68.17
2018-11-10T19:00:59.056Z,72.90
2018-11-10T19:03:27.595Z,78.63
2018-11-10T19:05:56.260Z,79.73
2018-11-10T19:08:25.370Z,77.50
2018-11-10T19:10:55.001Z,76.13
2018-11-10T19:13:23.920Z,74.60
2018-11-10T19:15:52.657Z,72.43
2018-11-10T19:18:21.612Z,70.23
2018-11-10T19:20:50.615Z,64.00
2018-11-10T19:23:19.642Z,67.67
2018-11-10T19:25:48.065Z,63.90
2018-11-10T19:28:16.722Z,73.90
2018-11-10T19:30:45.234Z,101.00
2018-11-10T19:33:14.003Z,72.27
2018-11-10T19:35:42.815Z,73.33
2018-11-10T19:38:11.423Z,66.93
2018-11-10T19:40:40.112Z,74.20
2018-11-10T19:43:09.132Z,82.43
2018-11-10T19:45:38.399Z,69.73
2018-11-10T19:48:06.823Z,71.40
2018-11-10T19:50:35.531Z,65.03
2018-11-10T19:53:03.923Z,59.27
2018-11-10T19:55:32.850Z,82.57
2018-11-10T19:58:01.461Z,67.87
2018-11-10T20:00:29.908Z,62.53
2018-11-10T20:02:58.578Z,65.00
2018-11-10T20:05:27.071Z,64.17
2018-11-10T20:07:55.633Z,61.63
2018-11-10T20:10:24.056Z,65.80
2018-11-10T20:12:52.521Z,65.07
2018-11-10T20:15:21.302Z,64.67
2018-11-10T20:17:49.939Z,70.47
2018-11-10T20:20:19.291Z,68.13
2018-11-10T20:22:48.095Z,70.43
2018-11-10T20:25:18.014Z,61.90
2018-11-10T20:27:46.682Z,61.93
2018-11-10T20:30:17.528Z,66.67
2018-11-10T20:32:46.580Z,68.83
2018-11-10T20:35:15.862Z,64.40
2018-11-10T20:37:45.167Z,66.60
2018-11-10T20:40:15.003Z,69.00
2018-11-10T20:42:44.045Z,73.37
2018-11-10T20:45:15.282Z,65.93
2018-11-10T20:47:44.147Z,66.43
2018-11-10T20:50:13.309Z,67.23
2018-11-10T20:52:42.442Z,65.17
2018-11-10T20:55:11.743Z,74.60
2018-11-10T20:57:40.392Z,78.67
2018-11-10T21:00:11.565Z,69.53
2018-11-10T21:02:41.222Z,61.80
2018-11-10T21:05:11.116Z,65.27
2018-11-10T21:07:39.795Z,71.33
2018-11-10T21:10:12.204Z,67.17
2018-11-10T21:12:41.848Z,65.30
2018-11-10T21:15:11.072Z,74.97
2018-11-10T21:17:39.484Z,77.57
2018-11-10T21:20:09.943Z,83.83
2018-11-10T21:22:38.638Z,77.03
2018-11-10T21:25:09.340Z,95.87
2018-11-10T21:27:38.504Z,103.17
2018-11-10T21:30:09.077Z,100.10
2018-11-10T21:32:37.704Z,95.67
2018-11-10T21:35:07.319Z,107.83
2018-11-10T21:37:36.211Z,115.77
2018-11-10T21:40:06.548Z,94.73
2018-11-10T21:42:34.976Z,92.47
2018-11-10T21:45:03.577Z,82.07
2018-11-10T21:47:32.272Z,104.43
